sensor_id;sensor_type;location;lat;lon;timestamp;pressure;altitude;pressure_sealevel;temperature;humidity
73748;BME280;62056;52.130;5.428;2023-12-14T00:02:13;101208.22;;;5.77;94.38
73748;BME280;62056;52.130;5.428;2023-12-14T00:04:40;101206.63;;;5.76;94.42
73748;BME280;62056;52.130;5.428;2023-12-14T00:07:07;101214.56;;;5.76;94.09
73748;BME280;62056;52.130;5.428;2023-12-14T00:09:34;101222.16;;;5.72;95.94
73748;BME280;62056;52.130;5.428;2023-12-14T00:12:01;101230.56;;;5.69;95.60
73748;BME280;62056;52.130;5.428;2023-12-14T00:14:27;101236.88;;;5.68;95.29
73748;BME280;62056;52.130;5.428;2023-12-14T00:16:54;101245.28;;;5.65;95.64
73748;BME280;62056;52.130;5.428;2023-12-14T00:19:23;101238.63;;;5.62;94.95
73748;BME280;62056;52.130;5.428;2023-12-14T00:21:50;101252.31;;;5.59;96.08
73748;BME280;62056;52.130;5.428;2023-12-14T00:24:17;101249.19;;;5.62;95.36
73748;BME280;62056;52.130;5.428;2023-12-14T00:26:44;101251.59;;;5.64;94.90
73748;BME280;62056;52.130;5.428;2023-12-14T00:29:10;101262.94;;;5.64;95.19
73748;BME280;62056;52.130;5.428;2023-12-14T00:31:37;101281.13;;;5.61;95.21
73748;BME280;62056;52.130;5.428;2023-12-14T00:34:04;101280.06;;;5.62;94.91
73748;BME280;62056;52.130;5.428;2023-12-14T00:36:32;101280.38;;;5.65;94.01
73748;BME280;62056;52.130;5.428;2023-12-14T00:38:59;101279.31;;;5.66;94.37
73748;BME280;62056;52.130;5.428;2023-12-14T00:41:26;101276.69;;;5.66;93.69
73748;BME280;62056;52.130;5.428;2023-12-14T00:43:54;101283.59;;;5.67;93.66
73748;BME280;62056;52.130;5.428;2023-12-14T00:46:21;101281.41;;;5.64;94.04
73748;BME280;62056;52.130;5.428;2023-12-14T00:48:47;101283.03;;;5.65;93.70
73748;BME280;62056;52.130;5.428;2023-12-14T00:51:14;101279.59;;;5.65;93.59
73748;BME280;62056;52.130;5.428;2023-12-14T00:53:41;101285.34;;;5.62;94.53
73748;BME280;62056;52.130;5.428;2023-12-14T00:56:08;101291.41;;;5.62;94.06
73748;BME280;62056;52.130;5.428;2023-12-14T00:58:35;101293.75;;;5.59;94.42
73748;BME280;62056;52.130;5.428;2023-12-14T01:01:02;101299.50;;;5.56;94.75
73748;BME280;62056;52.130;5.428;2023-12-14T01:03:29;101301.09;;;5.57;94.62
73748;BME280;62056;52.130;5.428;2023-12-14T01:05:56;101309.59;;;5.59;93.82
73748;BME280;62056;52.130;5.428;2023-12-14T01:08:23;101319.31;;;5.58;93.83
73748;BME280;62056;52.130;5.428;2023-12-14T01:10:50;101324.59;;;5.58;94.38
73748;BME280;62056;52.130;5.428;2023-12-14T01:13:17;101331.97;;;5.56;94.19
73748;BME280;62056;52.130;5.428;2023-12-14T01:15:43;101338.03;;;5.57;93.60
73748;BME280;62056;52.130;5.428;2023-12-14T01:18:11;101344.13;;;5.57;94.24
73748;BME280;62056;52.130;5.428;2023-12-14T01:20:38;101346.75;;;5.57;93.69
73748;BME280;62056;52.130;5.428;2023-12-14T01:23:04;101347.53;;;5.58;93.65
73748;BME280;62056;52.130;5.428;2023-12-14T01:25:31;101353.63;;;5.58;93.72
73748;BME280;62056;52.130;5.428;2023-12-14T01:27:58;101352.03;;;5.57;93.80
73748;BME280;62056;52.130;5.428;2023-12-14T01:30:26;101358.09;;;5.58;93.71
73748;BME280;62056;52.130;5.428;2023-12-14T01:32:53;101362.59;;;5.57;93.61
73748;BME280;62056;52.130;5.428;2023-12-14T01:35:20;101358.81;;;5.53;93.64
73748;BME280;62056;52.130;5.428;2023-12-14T01:37:46;101363.88;;;5.55;93.68
73748;BME280;62056;52.130;5.428;2023-12-14T01:40:13;101362.59;;;5.57;93.62
73748;BME280;62056;52.130;5.428;2023-12-14T01:42:40;101356.81;;;5.60;93.02
73748;BME280;62056;52.130;5.428;2023-12-14T01:45:07;101362.09;;;5.60;93.76
73748;BME280;62056;52.130;5.428;2023-12-14T01:47:34;101365.22;;;5.57;93.61
73748;BME280;62056;52.130;5.428;2023-12-14T01:50:01;101378.09;;;5.54;94.06
73748;BME280;62056;52.130;5.428;2023-12-14T01:52:27;101399.69;;;5.51;94.45
73748;BME280;62056;52.130;5.428;2023-12-14T01:54:54;101399.44;;;5.52;94.23
73748;BME280;62056;52.130;5.428;2023-12-14T01:57:22;101402.09;;;5.52;94.06
73748;BME280;62056;52.130;5.428;2023-12-14T01:59:48;101410.22;;;5.51;93.89
73748;BME280;62056;52.130;5.428;2023-12-14T02:02:15;101412.88;;;5.51;94.09
73748;BME280;62056;52.130;5.428;2023-12-14T02:04:42;101413.09;;;5.49;94.20
73748;BME280;62056;52.130;5.428;2023-12-14T02:07:08;101418.38;;;5.49;94.04
73748;BME280;62056;52.130;5.428;2023-12-14T02:09:35;101427.09;;;5.50;93.57
73748;BME280;62056;52.130;5.428;2023-12-14T02:12:02;101427.09;;;5.50;93.65
73748;BME280;62056;52.130;5.428;2023-12-14T02:14:29;101431.56;;;5.49;93.88
73748;BME280;62056;52.130;5.428;2023-12-14T02:16:56;101431.78;;;5.47;93.91
73748;BME280;62056;52.130;5.428;2023-12-14T02:19:22;101438.69;;;5.48;93.76
73748;BME280;62056;52.130;5.428;2023-12-14T02:21:49;101449.47;;;5.47;93.63
73748;BME280;62056;52.130;5.428;2023-12-14T02:24:15;101452.09;;;5.47;94.22
73748;BME280;62056;52.130;5.428;2023-12-14T02:26:42;101462.66;;;5.47;93.68
73748;BME280;62056;52.130;5.428;2023-12-14T02:29:27;101461.06;;;5.46;93.94
73748;BME280;62056;52.130;5.428;2023-12-14T02:31:54;101475.06;;;5.46;93.80
73748;BME280;62056;52.130;5.428;2023-12-14T02:34:21;101477.47;;;5.48;93.77
73748;BME280;62056;52.130;5.428;2023-12-14T02:36:48;101479.28;;;5.47;93.45
73748;BME280;62056;52.130;5.428;2023-12-14T02:39:14;101490.31;;;5.44;93.33
73748;BME280;62056;52.130;5.428;2023-12-14T02:41:41;101488.69;;;5.43;93.67
73748;BME280;62056;52.130;5.428;2023-12-14T02:44:07;101491.34;;;5.43;93.64
73748;BME280;62056;52.130;5.428;2023-12-14T02:46:34;101495.81;;;5.43;93.64
73748;BME280;62056;52.130;5.428;2023-12-14T02:49:01;101501.91;;;5.43;93.48
73748;BME280;62056;52.130;5.428;2023-12-14T02:51:28;101492.38;;;5.42;93.46
73748;BME280;62056;52.130;5.428;2023-12-14T02:53:55;101506.16;;;5.44;93.28
73748;BME280;62056;52.130;5.428;2023-12-14T02:56:23;101503.28;;;5.46;93.57
73748;BME280;62056;52.130;5.428;2023-12-14T02:58:50;101507.16;;;5.43;93.67
73748;BME280;62056;52.130;5.428;2023-12-14T03:01:21;101508.00;;;5.44;93.69
73748;BME280;62056;52.130;5.428;2023-12-14T03:03:48;101516.69;;;5.44;93.88
73748;BME280;62056;52.130;5.428;2023-12-14T03:06:15;101520.34;;;5.43;93.58
73748;BME280;62056;52.130;5.428;2023-12-14T03:08:42;101517.50;;;5.45;93.32
73748;BME280;62056;52.130;5.428;2023-12-14T03:11:09;101516.13;;;5.42;93.76
73748;BME280;62056;52.130;5.428;2023-12-14T03:13:36;101523.00;;;5.43;93.81
73748;BME280;62056;52.130;5.428;2023-12-14T03:16:03;101516.94;;;5.43;93.55
73748;BME280;62056;52.130;5.428;2023-12-14T03:18:30;101525.91;;;5.42;93.61
73748;BME280;62056;52.130;5.428;2023-12-14T03:20:57;101529.56;;;5.41;93.78
73748;BME280;62056;52.130;5.428;2023-12-14T03:23:23;101531.63;;;5.39;93.96
73748;BME280;62056;52.130;5.428;2023-12-14T03:25:50;101532.41;;;5.39;94.13
73748;BME280;62056;52.130;5.428;2023-12-14T03:28:17;101527.97;;;5.40;93.71
73748;BME280;62056;52.130;5.428;2023-12-14T03:30:43;101532.19;;;5.41;93.82
73748;BME280;62056;52.130;5.428;2023-12-14T03:33:10;101532.41;;;5.39;93.54
73748;BME280;62056;52.130;5.428;2023-12-14T03:35:38;101529.78;;;5.39;93.79
73748;BME280;62056;52.130;5.428;2023-12-14T03:38:05;101524.50;;;5.39;93.83
73748;BME280;62056;52.130;5.428;2023-12-14T03:40:32;101531.06;;;5.37;93.96
73748;BME280;62056;52.130;5.428;2023-12-14T03:42:58;101522.34;;;5.36;93.90
73748;BME280;62056;52.130;5.428;2023-12-14T03:45:25;101537.13;;;5.37;93.91
73748;BME280;62056;52.130;5.428;2023-12-14T03:47:52;101530.03;;;5.38;93.84
73748;BME280;62056;52.130;5.428;2023-12-14T03:50:20;101532.66;;;5.38;93.57
73748;BME280;62056;52.130;5.428;2023-12-14T03:52:46;101534.03;;;5.40;93.53
73748;BME280;62056;52.130;5.428;2023-12-14T03:55:15;101542.75;;;5.41;93.54
73748;BME280;62056;52.130;5.428;2023-12-14T03:57:43;101536.91;;;5.39;93.72
73748;BME280;62056;52.130;5.428;2023-12-14T04:00:11;101537.69;;;5.39;93.54
73748;BME280;62056;52.130;5.428;2023-12-14T04:02:40;101539.06;;;5.42;93.66
73748;BME280;62056;52.130;5.428;2023-12-14T04:05:07;101544.94;;;5.44;93.64
73748;BME280;62056;52.130;5.428;2023-12-14T04:07:37;101544.59;;;5.40;93.67
73748;BME280;62056;52.130;5.428;2023-12-14T04:10:08;101550.88;;;5.39;93.76
73748;BME280;62056;52.130;5.428;2023-12-14T04:12:36;101555.59;;;5.37;93.66
73748;BME280;62056;52.130;5.428;2023-12-14T04:15:04;101567.63;;;5.33;93.66
73748;BME280;62056;52.130;5.428;2023-12-14T04:17:31;101574.41;;;5.29;93.55
73748;BME280;62056;52.130;5.428;2023-12-14T04:19:58;101580.50;;;5.30;93.83
73748;BME280;62056;52.130;5.428;2023-12-14T04:22:26;101583.94;;;5.30;93.36
73748;BME280;62056;52.130;5.428;2023-12-14T04:24:53;101592.06;;;5.28;93.51
73748;BME280;62056;52.130;5.428;2023-12-14T04:27:19;101589.44;;;5.28;93.51
73748;BME280;62056;52.130;5.428;2023-12-14T04:29:47;101594.94;;;5.27;93.33
73748;BME280;62056;52.130;5.428;2023-12-14T04:32:14;101601.03;;;5.27;93.65
73748;BME280;62056;52.130;5.428;2023-12-14T04:34:41;101608.38;;;5.25;93.16
73748;BME280;62056;52.130;5.428;2023-12-14T04:37:08;101608.59;;;5.24;93.53
73748;BME280;62056;52.130;5.428;2023-12-14T04:39:37;101613.06;;;5.23;93.16
73748;BME280;62056;52.130;5.428;2023-12-14T04:42:04;101620.19;;;5.23;93.38
73748;BME280;62056;52.130;5.428;2023-12-14T04:44:31;101615.94;;;5.22;93.22
73748;BME280;62056;52.130;5.428;2023-12-14T04:46:57;101628.09;;;5.23;93.29
73748;BME280;62056;52.130;5.428;2023-12-14T04:49:24;101638.66;;;5.23;93.31
73748;BME280;62056;52.130;5.428;2023-12-14T04:51:51;101636.81;;;5.23;92.83
73748;BME280;62056;52.130;5.428;2023-12-14T04:54:18;101648.38;;;5.22;92.89
73748;BME280;62056;52.130;5.428;2023-12-14T04:56:46;101652.84;;;5.22;92.65
73748;BME280;62056;52.130;5.428;2023-12-14T04:59:12;101662.38;;;5.23;93.04
73748;BME280;62056;52.130;5.428;2023-12-14T05:01:39;101661.34;;;5.24;93.19
73748;BME280;62056;52.130;5.428;2023-12-14T05:04:06;101669.25;;;5.24;92.65
73748;BME280;62056;52.130;5.428;2023-12-14T05:06:32;101673.72;;;5.23;92.59
73748;BME280;62056;52.130;5.428;2023-12-14T05:09:00;101676.59;;;5.22;92.83
73748;BME280;62056;52.130;5.428;2023-12-14T05:11:31;101677.38;;;5.22;92.75
73748;BME280;62056;52.130;5.428;2023-12-14T05:13:58;101687.13;;;5.22;92.68
73748;BME280;62056;52.130;5.428;2023-12-14T05:16:25;101688.97;;;5.21;92.87
73748;BME280;62056;52.130;5.428;2023-12-14T05:18:53;101702.38;;;5.20;92.74
73748;BME280;62056;52.130;5.428;2023-12-14T05:21:20;101710.53;;;5.18;92.91
73748;BME280;62056;52.130;5.428;2023-12-14T05:23:47;101718.22;;;5.20;92.86
73748;BME280;62056;52.130;5.428;2023-12-14T05:26:14;101716.63;;;5.19;92.75
73748;BME280;62056;52.130;5.428;2023-12-14T05:28:41;101726.03;;;5.15;93.15
73748;BME280;62056;52.130;5.428;2023-12-14T05:31:07;101726.03;;;5.15;93.11
73748;BME280;62056;52.130;5.428;2023-12-14T05:33:38;101728.41;;;5.16;92.74
73748;BME280;62056;52.130;5.428;2023-12-14T05:36:06;101735.75;;;5.14;93.22
73748;BME280;62056;52.130;5.428;2023-12-14T05:38:39;101736.56;;;5.15;93.24
73748;BME280;62056;52.130;5.428;2023-12-14T05:41:06;101744.22;;;5.16;93.23
73748;BME280;62056;52.130;5.428;2023-12-14T05:43:33;101740.00;;;5.15;92.78
73748;BME280;62056;52.130;5.428;2023-12-14T05:46:00;101745.28;;;5.15;92.91
73748;BME280;62056;52.130;5.428;2023-12-14T05:48:26;101748.13;;;5.14;93.31
73748;BME280;62056;52.130;5.428;2023-12-14T05:50:56;101756.84;;;5.14;93.04
73748;BME280;62056;52.130;5.428;2023-12-14T05:53:23;101749.75;;;5.15;93.08
73748;BME280;62056;52.130;5.428;2023-12-14T05:55:54;101762.94;;;5.15;93.36
73748;BME280;62056;52.130;5.428;2023-12-14T05:58:21;101753.97;;;5.16;92.72
73748;BME280;62056;52.130;5.428;2023-12-14T06:00:48;101763.72;;;5.15;93.02
73748;BME280;62056;52.130;5.428;2023-12-14T06:03:14;101770.50;;;5.11;93.06
73748;BME280;62056;52.130;5.428;2023-12-14T06:05:41;101774.13;;;5.10;93.13
73748;BME280;62056;52.130;5.428;2023-12-14T06:08:08;101781.72;;;5.06;93.04
73748;BME280;62056;52.130;5.428;2023-12-14T06:10:35;101787.00;;;5.06;92.92
73748;BME280;62056;52.130;5.428;2023-12-14T06:13:03;101791.09;;;5.02;91.94
73748;BME280;62056;52.130;5.428;2023-12-14T06:15:30;101792.13;;;5.01;92.16
73748;BME280;62056;52.130;5.428;2023-12-14T06:17:56;101788.47;;;5.02;91.82
73748;BME280;62056;52.130;5.428;2023-12-14T06:20:23;101791.53;;;4.99;91.51
73748;BME280;62056;52.130;5.428;2023-12-14T06:22:50;101791.75;;;4.98;91.14
73748;BME280;62056;52.130;5.428;2023-12-14T06:25:17;101807.56;;;4.98;91.44
73748;BME280;62056;52.130;5.428;2023-12-14T06:27:43;101813.44;;;5.00;91.76
73748;BME280;62056;52.130;5.428;2023-12-14T06:30:11;101812.63;;;4.99;90.91
73748;BME280;62056;52.130;5.428;2023-12-14T06:32:38;101820.19;;;4.96;90.36
73748;BME280;62056;52.130;5.428;2023-12-14T06:35:06;101838.03;;;4.94;90.34
73748;BME280;62056;52.130;5.428;2023-12-14T06:37:33;101836.66;;;4.91;90.79
73748;BME280;62056;52.130;5.428;2023-12-14T06:40:00;101838.97;;;4.88;90.23
73748;BME280;62056;52.130;5.428;2023-12-14T06:42:27;101851.09;;;4.89;90.75
73748;BME280;62056;52.130;5.428;2023-12-14T06:44:54;101850.75;;;4.85;89.88
73748;BME280;62056;52.130;5.428;2023-12-14T06:47:21;101859.69;;;4.84;89.98
73748;BME280;62056;52.130;5.428;2023-12-14T06:49:48;101860.69;;;4.83;90.03
73748;BME280;62056;52.130;5.428;2023-12-14T06:52:17;101858.66;;;4.85;90.56
73748;BME280;62056;52.130;5.428;2023-12-14T06:54:44;101873.88;;;4.83;89.31
73748;BME280;62056;52.130;5.428;2023-12-14T06:57:10;101872.50;;;4.80;90.29
73748;BME280;62056;52.130;5.428;2023-12-14T06:59:37;101873.97;;;4.76;89.64
73748;BME280;62056;52.130;5.428;2023-12-14T07:02:04;101887.34;;;4.75;89.55
73748;BME280;62056;52.130;5.428;2023-12-14T07:04:31;101881.28;;;4.74;89.97
73748;BME280;62056;52.130;5.428;2023-12-14T07:06:57;101895.94;;;4.70;89.00
73748;BME280;62056;52.130;5.428;2023-12-14T07:09:24;101895.34;;;4.68;88.89
73748;BME280;62056;52.130;5.428;2023-12-14T07:11:52;101908.72;;;4.66;89.06
73748;BME280;62056;52.130;5.428;2023-12-14T07:14:18;101910.56;;;4.66;89.27
73748;BME280;62056;52.130;5.428;2023-12-14T07:16:49;101912.63;;;4.64;88.83
73748;BME280;62056;52.130;5.428;2023-12-14T07:19:16;101929.47;;;4.63;88.05
73748;BME280;62056;52.130;5.428;2023-12-14T07:21:43;101925.22;;;4.62;88.67
73748;BME280;62056;52.130;5.428;2023-12-14T07:24:09;101931.28;;;4.62;88.75
73748;BME280;62056;52.130;5.428;2023-12-14T07:26:36;101930.47;;;4.62;87.93
73748;BME280;62056;52.130;5.428;2023-12-14T07:29:03;101930.84;;;4.65;88.78
73748;BME280;62056;52.130;5.428;2023-12-14T07:31:30;101944.41;;;4.69;89.00
73748;BME280;62056;52.130;5.428;2023-12-14T07:33:57;101936.50;;;4.69;88.73
73748;BME280;62056;52.130;5.428;2023-12-14T07:36:23;101949.44;;;4.71;88.78
73748;BME280;62056;52.130;5.428;2023-12-14T07:38:50;101940.31;;;4.73;88.99
73748;BME280;62056;52.130;5.428;2023-12-14T07:41:20;101950.97;;;4.78;89.43
73748;BME280;62056;52.130;5.428;2023-12-14T07:43:53;101952.16;;;4.82;88.58
73748;BME280;62056;52.130;5.428;2023-12-14T07:46:19;101950.91;;;4.85;88.01
73748;BME280;62056;52.130;5.428;2023-12-14T07:48:46;101959.31;;;4.94;90.36
73748;BME280;62056;52.130;5.428;2023-12-14T07:51:13;101971.03;;;4.98;89.08
73748;BME280;62056;52.130;5.428;2023-12-14T07:53:40;101970.31;;;5.09;90.93
73748;BME280;62056;52.130;5.428;2023-12-14T07:56:07;101969.31;;;5.22;91.71
73748;BME280;62056;52.130;5.428;2023-12-14T07:58:34;101974.09;;;5.32;92.33
73748;BME280;62056;52.130;5.428;2023-12-14T08:01:01;101977.44;;;5.39;92.61
73748;BME280;62056;52.130;5.428;2023-12-14T08:03:28;101972.06;;;5.45;91.45
73748;BME280;62056;52.130;5.428;2023-12-14T08:05:55;101969.94;;;5.54;93.97
73748;BME280;62056;52.130;5.428;2023-12-14T08:08:22;101983.94;;;5.55;92.97
73748;BME280;62056;52.130;5.428;2023-12-14T08:10:49;101986.69;;;5.60;92.31
73748;BME280;62056;52.130;5.428;2023-12-14T08:13:18;101989.22;;;5.66;92.63
73748;BME280;62056;52.130;5.428;2023-12-14T08:15:45;101985.09;;;5.71;93.46
73748;BME280;62056;52.130;5.428;2023-12-14T08:18:12;101986.25;;;5.75;92.92
73748;BME280;62056;52.130;5.428;2023-12-14T08:20:40;101981.00;;;5.75;92.27
73748;BME280;62056;52.130;5.428;2023-12-14T08:23:07;101995.91;;;5.69;91.12
73748;BME280;62056;52.130;5.428;2023-12-14T08:25:34;102005.31;;;5.77;93.41
73748;BME280;62056;52.130;5.428;2023-12-14T08:28:01;102015.22;;;5.81;90.10
73748;BME280;62056;52.130;5.428;2023-12-14T08:30:30;102020.75;;;5.92;93.77
73748;BME280;62056;52.130;5.428;2023-12-14T08:32:57;102024.78;;;5.94;92.91
73748;BME280;62056;52.130;5.428;2023-12-14T08:35:24;102017.00;;;5.99;94.53
73748;BME280;62056;52.130;5.428;2023-12-14T08:37:51;102019.28;;;5.96;91.73
73748;BME280;62056;52.130;5.428;2023-12-14T08:40:19;102020.75;;;5.92;90.28
73748;BME280;62056;52.130;5.428;2023-12-14T08:42:47;102017.88;;;5.93;90.91
73748;BME280;62056;52.130;5.428;2023-12-14T08:45:14;102025.41;;;5.96;92.98
73748;BME280;62056;52.130;5.428;2023-12-14T08:47:40;102036.53;;;5.98;91.35
73748;BME280;62056;52.130;5.428;2023-12-14T08:50:08;102037.59;;;6.09;92.77
73748;BME280;62056;52.130;5.428;2023-12-14T08:52:35;102039.19;;;6.10;93.12
73748;BME280;62056;52.130;5.428;2023-12-14T08:55:02;102042.34;;;6.19;93.36
73748;BME280;62056;52.130;5.428;2023-12-14T08:57:29;102061.16;;;6.11;88.92
73748;BME280;62056;52.130;5.428;2023-12-14T08:59:58;102060.69;;;6.14;89.81
73748;BME280;62056;52.130;5.428;2023-12-14T09:02:26;102065.28;;;6.18;89.12
73748;BME280;62056;52.130;5.428;2023-12-14T09:04:53;102060.94;;;6.24;91.52
73748;BME280;62056;52.130;5.428;2023-12-14T09:07:21;102070.94;;;6.22;91.24
73748;BME280;62056;52.130;5.428;2023-12-14T09:10:01;102074.72;;;6.26;92.00
73748;BME280;62056;52.130;5.428;2023-12-14T09:12:59;102071.50;;;6.24;90.80
73748;BME280;62056;52.130;5.428;2023-12-14T09:15:33;102078.75;;;6.28;90.29
73748;BME280;62056;52.130;5.428;2023-12-14T09:18:06;102082.09;;;6.36;88.37
73748;BME280;62056;52.130;5.428;2023-12-14T09:20:41;102092.09;;;6.45;91.87
73748;BME280;62056;52.130;5.428;2023-12-14T09:23:11;102094.63;;;6.40;89.64
73748;BME280;62056;52.130;5.428;2023-12-14T09:25:42;102093.25;;;6.38;87.27
73748;BME280;62056;52.130;5.428;2023-12-14T09:28:09;102098.28;;;6.39;88.21
73748;BME280;62056;52.130;5.428;2023-12-14T09:30:39;102097.28;;;6.40;90.05
73748;BME280;62056;52.130;5.428;2023-12-14T09:33:15;102104.25;;;6.35;87.05
73748;BME280;62056;52.130;5.428;2023-12-14T09:36:27;102115.41;;;6.37;88.90
73748;BME280;62056;52.130;5.428;2023-12-14T09:42:02;102119.09;;;6.47;87.71
73748;BME280;62056;52.130;5.428;2023-12-14T09:44:49;102130.03;;;6.51;85.99
73748;BME280;62056;52.130;5.428;2023-12-14T09:47:22;102129.91;;;6.58;84.89
73748;BME280;62056;52.130;5.428;2023-12-14T09:50:02;102134.88;;;6.66;85.00
73748;BME280;62056;52.130;5.428;2023-12-14T09:52:39;102133.97;;;6.72;88.57
73748;BME280;62056;52.130;5.428;2023-12-14T09:55:40;102143.38;;;6.68;85.54
73748;BME280;62056;52.130;5.428;2023-12-14T09:58:16;102157.28;;;6.63;84.68
73748;BME280;62056;52.130;5.428;2023-12-14T10:00:49;102161.22;;;6.61;83.62
73748;BME280;62056;52.130;5.428;2023-12-14T10:03:33;102168.56;;;6.71;88.55
73748;BME280;62056;52.130;5.428;2023-12-14T10:06:33;102175.00;;;6.63;85.14
73748;BME280;62056;52.130;5.428;2023-12-14T10:09:01;102181.78;;;6.59;86.58
73748;BME280;62056;52.130;5.428;2023-12-14T10:11:37;102190.81;;;6.51;85.04
73748;BME280;62056;52.130;5.428;2023-12-14T10:14:24;102191.63;;;6.52;82.23
73748;BME280;62056;52.130;5.428;2023-12-14T10:16:54;102180.72;;;6.60;86.05
73748;BME280;62056;52.130;5.428;2023-12-14T10:19:29;102182.69;;;6.64;86.51
73748;BME280;62056;52.130;5.428;2023-12-14T10:21:56;102183.50;;;6.65;86.49
73748;BME280;62056;52.130;5.428;2023-12-14T10:24:32;102181.66;;;6.65;82.85
73748;BME280;62056;52.130;5.428;2023-12-14T10:27:06;102186.16;;;6.77;84.29
73748;BME280;62056;52.130;5.428;2023-12-14T10:29:38;102181.13;;;6.87;84.91
73748;BME280;62056;52.130;5.428;2023-12-14T10:32:06;102184.47;;;6.94;83.58
73748;BME280;62056;52.130;5.428;2023-12-14T10:34:35;102181.13;;;6.99;84.74
73748;BME280;62056;52.130;5.428;2023-12-14T10:37:05;102185.97;;;7.02;83.09
73748;BME280;62056;52.130;5.428;2023-12-14T10:39:37;102195.41;;;7.09;83.20
73748;BME280;62056;52.130;5.428;2023-12-14T10:42:08;102185.97;;;7.14;84.05
73748;BME280;62056;52.130;5.428;2023-12-14T10:44:46;102186.31;;;7.17;86.15
73748;BME280;62056;52.130;5.428;2023-12-14T10:47:34;102187.59;;;7.15;85.22
73748;BME280;62056;52.130;5.428;2023-12-14T10:50:02;102187.94;;;7.18;83.26
73748;BME280;62056;52.130;5.428;2023-12-14T10:52:30;102181.94;;;7.23;82.94
73748;BME280;62056;52.130;5.428;2023-12-14T10:55:05;102186.78;;;7.26;82.97
73748;BME280;62056;52.130;5.428;2023-12-14T10:57:34;102185.97;;;7.25;84.88
73748;BME280;62056;52.130;5.428;2023-12-14T11:00:03;102188.63;;;7.25;84.95
73748;BME280;62056;52.130;5.428;2023-12-14T11:02:40;102187.81;;;7.25;86.40
73748;BME280;62056;52.130;5.428;2023-12-14T11:05:12;102189.66;;;7.24;87.08
73748;BME280;62056;52.130;5.428;2023-12-14T11:07:50;102198.28;;;7.20;86.72
73748;BME280;62056;52.130;5.428;2023-12-14T11:10:28;102207.94;;;7.14;84.06
73748;BME280;62056;52.130;5.428;2023-12-14T11:13:06;102211.28;;;7.09;83.47
73748;BME280;62056;52.130;5.428;2023-12-14T11:15:46;102209.44;;;7.10;81.84
73748;BME280;62056;52.130;5.428;2023-12-14T11:18:26;102218.53;;;7.14;83.50
73748;BME280;62056;52.130;5.428;2023-12-14T11:20:59;102223.13;;;7.07;80.27
73748;BME280;62056;52.130;5.428;2023-12-14T11:23:32;102229.00;;;7.09;82.23
73748;BME280;62056;52.130;5.428;2023-12-14T11:26:11;102228.31;;;7.14;81.60
73748;BME280;62056;52.130;5.428;2023-12-14T11:28:40;102229.47;;;7.18;81.86
73748;BME280;62056;52.130;5.428;2023-12-14T11:31:13;102233.25;;;7.22;79.62
73748;BME280;62056;52.130;5.428;2023-12-14T11:33:43;102234.19;;;7.27;80.88
73748;BME280;62056;52.130;5.428;2023-12-14T11:36:13;102230.38;;;7.35;83.82
73748;BME280;62056;52.130;5.428;2023-12-14T11:38:43;102233.84;;;7.36;84.71
73748;BME280;62056;52.130;5.428;2023-12-14T11:41:13;102233.50;;;7.32;84.53
73748;BME280;62056;52.130;5.428;2023-12-14T11:43:43;102235.56;;;7.30;80.27
73748;BME280;62056;52.130;5.428;2023-12-14T11:46:12;102227.41;;;7.32;80.63
73748;BME280;62056;52.130;5.428;2023-12-14T11:48:40;102237.88;;;7.38;83.30
73748;BME280;62056;52.130;5.428;2023-12-14T11:51:08;102233.38;;;7.39;82.28
73748;BME280;62056;52.130;5.428;2023-12-14T11:53:36;102229.22;;;7.43;80.69
73748;BME280;62056;52.130;5.428;2023-12-14T11:56:07;102233.84;;;7.47;80.80
73748;BME280;62056;52.130;5.428;2023-12-14T11:58:36;102230.50;;;7.52;81.29
73748;BME280;62056;52.130;5.428;2023-12-14T12:01:15;102233.25;;;7.57;80.12
73748;BME280;62056;52.130;5.428;2023-12-14T12:03:44;102240.50;;;7.62;81.80
73748;BME280;62056;52.130;5.428;2023-12-14T12:06:22;102235.78;;;7.64;78.23
73748;BME280;62056;52.130;5.428;2023-12-14T12:08:51;102238.28;;;7.70;83.14
73748;BME280;62056;52.130;5.428;2023-12-14T12:11:21;102247.53;;;7.68;83.51
73748;BME280;62056;52.130;5.428;2023-12-14T12:13:56;102244.78;;;7.63;81.58
73748;BME280;62056;52.130;5.428;2023-12-14T12:16:24;102245.22;;;7.60;79.59
73748;BME280;62056;52.130;5.428;2023-12-14T12:18:52;102248.31;;;7.68;81.81
73748;BME280;62056;52.130;5.428;2023-12-14T12:21:21;102249.47;;;7.73;83.00
73748;BME280;62056;52.130;5.428;2023-12-14T12:23:48;102250.28;;;7.73;81.83
73748;BME280;62056;52.130;5.428;2023-12-14T12:26:15;102256.97;;;7.76;82.15
73748;BME280;62056;52.130;5.428;2023-12-14T12:28:42;102254.09;;;7.77;81.69
73748;BME280;62056;52.130;5.428;2023-12-14T12:31:09;102261.31;;;7.82;82.91
73748;BME280;62056;52.130;5.428;2023-12-14T12:33:39;102259.69;;;7.81;82.57
73748;BME280;62056;52.130;5.428;2023-12-14T12:36:09;102256.84;;;7.82;83.31
73748;BME280;62056;52.130;5.428;2023-12-14T12:38:35;102263.97;;;7.82;81.69
73748;BME280;62056;52.130;5.428;2023-12-14T12:41:07;102265.81;;;7.81;80.68
73748;BME280;62056;52.130;5.428;2023-12-14T12:43:34;102264.56;;;7.84;82.67
73748;BME280;62056;52.130;5.428;2023-12-14T12:46:01;102273.78;;;7.81;82.96
73748;BME280;62056;52.130;5.428;2023-12-14T12:48:32;102275.84;;;7.79;82.75
73748;BME280;62056;52.130;5.428;2023-12-14T12:50:59;102280.78;;;7.76;82.39
73748;BME280;62056;52.130;5.428;2023-12-14T12:53:26;102271.00;;;7.76;80.43
73748;BME280;62056;52.130;5.428;2023-12-14T12:55:53;102277.00;;;7.83;82.56
73748;BME280;62056;52.130;5.428;2023-12-14T12:58:24;102274.34;;;7.83;80.05
73748;BME280;62056;52.130;5.428;2023-12-14T13:01:09;102274.66;;;7.87;80.93
73748;BME280;62056;52.130;5.428;2023-12-14T13:03:41;102274.22;;;7.90;81.85
73748;BME280;62056;52.130;5.428;2023-12-14T13:06:11;102273.38;;;7.89;81.24
73748;BME280;62056;52.130;5.428;2023-12-14T13:08:38;102275.50;;;7.87;82.70
73748;BME280;62056;52.130;5.428;2023-12-14T13:11:05;102271.69;;;7.83;80.29
73748;BME280;62056;52.130;5.428;2023-12-14T13:13:34;102270.41;;;7.86;81.70